sensor_id;sensor_type;location;lat;lon;timestamp;P1;durP1;ratioP1;P2;durP2;ratioP2
69485;SDS011;56677;51.710;5.366;2023-07-24T03:46:00;2.53;;;1.40;;
69485;SDS011;56677;51.710;5.366;2023-07-24T03:48:25;2.77;;;1.80;;
69485;SDS011;56677;51.710;5.366;2023-07-24T03:50:53;2.95;;;1.60;;
69485;SDS011;56677;51.710;5.366;2023-07-24T03:53:22;1.88;;;1.17;;
69485;SDS011;56677;51.710;5.366;2023-07-24T03:55:47;3.47;;;1.50;;
69485;SDS011;56677;51.710;5.366;2023-07-24T03:58:12;4.95;;;1.70;;
69485;SDS011;56677;51.710;5.366;2023-07-24T04:00:37;3.90;;;1.67;;
69485;SDS011;56677;51.710;5.366;2023-07-24T04:03:03;2.72;;;1.50;;
69485;SDS011;56677;51.710;5.366;2023-07-24T04:05:28;3.77;;;1.30;;
69485;SDS011;56677;51.710;5.366;2023-07-24T04:07:54;4.35;;;1.40;;
69485;SDS011;56677;51.710;5.366;2023-07-24T04:10:19;2.97;;;1.20;;
69485;SDS011;56677;51.710;5.366;2023-07-24T04:12:44;3.28;;;1.40;;
69485;SDS011;56677;51.710;5.366;2023-07-24T04:15:09;2.75;;;1.45;;
69485;SDS011;56677;51.710;5.366;2023-07-24T04:17:35;3.40;;;1.38;;
69485;SDS011;56677;51.710;5.366;2023-07-24T04:20:00;2.95;;;1.40;;
69485;SDS011;56677;51.710;5.366;2023-07-24T04:22:25;4.93;;;1.67;;
69485;SDS011;56677;51.710;5.366;2023-07-24T04:24:50;2.53;;;1.53;;
69485;SDS011;56677;51.710;5.366;2023-07-24T04:27:15;3.42;;;1.27;;
69485;SDS011;56677;51.710;5.366;2023-07-24T04:29:40;3.67;;;1.38;;
69485;SDS011;56677;51.710;5.366;2023-07-24T04:32:05;2.63;;;1.30;;
69485;SDS011;56677;51.710;5.366;2023-07-24T04:34:31;7.90;;;1.50;;
69485;SDS011;56677;51.710;5.366;2023-07-24T04:36:56;3.05;;;1.40;;
69485;SDS011;56677;51.710;5.366;2023-07-24T04:39:21;2.27;;;1.20;;
69485;SDS011;56677;51.710;5.366;2023-07-24T04:41:46;3.58;;;1.50;;
69485;SDS011;56677;51.710;5.366;2023-07-24T04:44:11;2.78;;;1.20;;
69485;SDS011;56677;51.710;5.366;2023-07-24T04:46:36;3.88;;;1.55;;
69485;SDS011;56677;51.710;5.366;2023-07-24T04:49:01;2.63;;;1.23;;
69485;SDS011;56677;51.710;5.366;2023-07-24T04:51:27;4.63;;;1.55;;
69485;SDS011;56677;51.710;5.366;2023-07-24T04:53:53;2.65;;;1.27;;
69485;SDS011;56677;51.710;5.366;2023-07-24T04:56:18;2.38;;;1.23;;
69485;SDS011;56677;51.710;5.366;2023-07-24T04:58:43;4.60;;;1.27;;
69485;SDS011;56677;51.710;5.366;2023-07-24T05:01:08;3.78;;;1.20;;
69485;SDS011;56677;51.710;5.366;2023-07-24T05:03:33;3.22;;;1.45;;
69485;SDS011;56677;51.710;5.366;2023-07-24T05:05:58;3.50;;;1.60;;
69485;SDS011;56677;51.710;5.366;2023-07-24T05:08:24;3.22;;;1.17;;
69485;SDS011;56677;51.710;5.366;2023-07-24T05:10:55;4.55;;;1.40;;
69485;SDS011;56677;51.710;5.366;2023-07-24T05:13:20;2.17;;;1.13;;
69485;SDS011;56677;51.710;5.366;2023-07-24T05:15:46;2.30;;;1.50;;
69485;SDS011;56677;51.710;5.366;2023-07-24T05:18:11;2.72;;;1.58;;
69485;SDS011;56677;51.710;5.366;2023-07-24T05:20:36;2.53;;;1.60;;
69485;SDS011;56677;51.710;5.366;2023-07-24T05:23:01;3.67;;;1.80;;
69485;SDS011;56677;51.710;5.366;2023-07-24T05:25:26;4.47;;;1.60;;
69485;SDS011;56677;51.710;5.366;2023-07-24T05:27:51;2.92;;;1.50;;
69485;SDS011;56677;51.710;5.366;2023-07-24T05:30:17;2.87;;;1.67;;
69485;SDS011;56677;51.710;5.366;2023-07-24T05:32:42;6.15;;;1.50;;
69485;SDS011;56677;51.710;5.366;2023-07-24T05:35:07;3.30;;;1.70;;
69485;SDS011;56677;51.710;5.366;2023-07-24T05:37:32;5.37;;;1.50;;
69485;SDS011;56677;51.710;5.366;2023-07-24T05:39:57;3.10;;;1.43;;
69485;SDS011;56677;51.710;5.366;2023-07-24T05:42:22;3.10;;;1.70;;
69485;SDS011;56677;51.710;5.366;2023-07-24T05:44:47;2.53;;;1.60;;
69485;SDS011;56677;51.710;5.366;2023-07-24T05:47:12;5.20;;;1.30;;
69485;SDS011;56677;51.710;5.366;2023-07-24T05:49:38;4.55;;;1.73;;
69485;SDS011;56677;51.710;5.366;2023-07-24T05:52:03;2.67;;;1.55;;
69485;SDS011;56677;51.710;5.366;2023-07-24T05:54:28;4.97;;;1.60;;
69485;SDS011;56677;51.710;5.366;2023-07-24T05:56:53;3.83;;;1.60;;
69485;SDS011;56677;51.710;5.366;2023-07-24T05:59:18;3.55;;;1.58;;
69485;SDS011;56677;51.710;5.366;2023-07-24T06:01:43;3.67;;;1.50;;
69485;SDS011;56677;51.710;5.366;2023-07-24T06:04:08;6.38;;;1.50;;
69485;SDS011;56677;51.710;5.366;2023-07-24T06:06:34;4.95;;;1.38;;
69485;SDS011;56677;51.710;5.366;2023-07-24T06:08:59;5.67;;;1.43;;
69485;SDS011;56677;51.710;5.366;2023-07-24T06:11:24;2.53;;;1.17;;
69485;SDS011;56677;51.710;5.366;2023-07-24T06:13:49;2.63;;;1.33;;
69485;SDS011;56677;51.710;5.366;2023-07-24T06:16:14;9.57;;;1.70;;
69485;SDS011;56677;51.710;5.366;2023-07-24T06:18:39;6.63;;;1.80;;
69485;SDS011;56677;51.710;5.366;2023-07-24T06:21:04;4.22;;;1.52;;
69485;SDS011;56677;51.710;5.366;2023-07-24T06:23:29;3.78;;;1.42;;
69485;SDS011;56677;51.710;5.366;2023-07-24T06:25:55;4.00;;;1.58;;
69485;SDS011;56677;51.710;5.366;2023-07-24T06:28:20;6.40;;;1.73;;
69485;SDS011;56677;51.710;5.366;2023-07-24T06:30:45;6.70;;;2.00;;
69485;SDS011;56677;51.710;5.366;2023-07-24T06:33:10;5.07;;;1.85;;
69485;SDS011;56677;51.710;5.366;2023-07-24T06:35:35;3.40;;;1.70;;
69485;SDS011;56677;51.710;5.366;2023-07-24T06:38:00;4.30;;;1.70;;
69485;SDS011;56677;51.710;5.366;2023-07-24T06:40:25;5.72;;;1.88;;
69485;SDS011;56677;51.710;5.366;2023-07-24T06:42:50;4.63;;;1.73;;
69485;SDS011;56677;51.710;5.366;2023-07-24T06:45:15;5.28;;;1.83;;
69485;SDS011;56677;51.710;5.366;2023-07-24T06:47:41;4.40;;;1.80;;
69485;SDS011;56677;51.710;5.366;2023-07-24T06:50:06;4.32;;;1.80;;
69485;SDS011;56677;51.710;5.366;2023-07-24T06:52:32;7.10;;;2.30;;
69485;SDS011;56677;51.710;5.366;2023-07-24T06:54:57;6.00;;;2.00;;
69485;SDS011;56677;51.710;5.366;2023-07-24T06:57:22;4.73;;;1.90;;
69485;SDS011;56677;51.710;5.366;2023-07-24T06:59:47;5.40;;;2.00;;
69485;SDS011;56677;51.710;5.366;2023-07-24T07:02:12;4.75;;;1.85;;
69485;SDS011;56677;51.710;5.366;2023-07-24T07:04:37;6.10;;;2.13;;
69485;SDS011;56677;51.710;5.366;2023-07-24T07:07:02;5.35;;;1.80;;
69485;SDS011;56677;51.710;5.366;2023-07-24T07:09:28;5.73;;;2.10;;
69485;SDS011;56677;51.710;5.366;2023-07-24T07:11:53;6.88;;;2.35;;
69485;SDS011;56677;51.710;5.366;2023-07-24T07:14:18;5.90;;;2.47;;
69485;SDS011;56677;51.710;5.366;2023-07-24T07:16:43;4.82;;;2.72;;
69485;SDS011;56677;51.710;5.366;2023-07-24T07:19:08;6.03;;;2.80;;
69485;SDS011;56677;51.710;5.366;2023-07-24T07:21:33;5.20;;;2.20;;
69485;SDS011;56677;51.710;5.366;2023-07-24T07:23:58;5.23;;;2.33;;
69485;SDS011;56677;51.710;5.366;2023-07-24T07:26:23;5.25;;;2.50;;
69485;SDS011;56677;51.710;5.366;2023-07-24T07:28:49;4.82;;;2.30;;
69485;SDS011;56677;51.710;5.366;2023-07-24T07:31:14;5.57;;;2.20;;
69485;SDS011;56677;51.710;5.366;2023-07-24T07:33:39;4.17;;;2.60;;
69485;SDS011;56677;51.710;5.366;2023-07-24T07:36:04;5.50;;;2.80;;
69485;SDS011;56677;51.710;5.366;2023-07-24T07:38:29;5.23;;;2.23;;
69485;SDS011;56677;51.710;5.366;2023-07-24T07:40:54;3.95;;;2.08;;
69485;SDS011;56677;51.710;5.366;2023-07-24T07:43:20;6.73;;;2.37;;
69485;SDS011;56677;51.710;5.366;2023-07-24T07:45:46;4.65;;;2.55;;
69485;SDS011;56677;51.710;5.366;2023-07-24T07:48:11;4.35;;;2.10;;
69485;SDS011;56677;51.710;5.366;2023-07-24T07:50:36;6.55;;;2.45;;
69485;SDS011;56677;51.710;5.366;2023-07-24T07:53:01;5.80;;;2.30;;
69485;SDS011;56677;51.710;5.366;2023-07-24T07:55:26;6.20;;;2.33;;
69485;SDS011;56677;51.710;5.366;2023-07-24T07:57:51;5.15;;;2.30;;
69485;SDS011;56677;51.710;5.366;2023-07-24T08:00:17;5.60;;;2.50;;
69485;SDS011;56677;51.710;5.366;2023-07-24T08:02:42;5.00;;;2.40;;
69485;SDS011;56677;51.710;5.366;2023-07-24T08:05:07;4.30;;;2.33;;
69485;SDS011;56677;51.710;5.366;2023-07-24T08:07:33;4.80;;;2.40;;
69485;SDS011;56677;51.710;5.366;2023-07-24T08:09:58;4.13;;;2.15;;
69485;SDS011;56677;51.710;5.366;2023-07-24T08:12:23;5.70;;;2.60;;
69485;SDS011;56677;51.710;5.366;2023-07-24T08:14:48;6.05;;;2.60;;
69485;SDS011;56677;51.710;5.366;2023-07-24T08:17:13;5.50;;;2.38;;
69485;SDS011;56677;51.710;5.366;2023-07-24T08:19:38;4.53;;;2.60;;
69485;SDS011;56677;51.710;5.366;2023-07-24T08:22:04;5.05;;;2.50;;
69485;SDS011;56677;51.710;5.366;2023-07-24T08:24:29;5.40;;;2.80;;
69485;SDS011;56677;51.710;5.366;2023-07-24T08:26:54;5.43;;;2.72;;
69485;SDS011;56677;51.710;5.366;2023-07-24T08:29:19;6.05;;;2.80;;
69485;SDS011;56677;51.710;5.366;2023-07-24T08:31:44;6.20;;;2.60;;
69485;SDS011;56677;51.710;5.366;2023-07-24T08:34:09;4.72;;;2.42;;
69485;SDS011;56677;51.710;5.366;2023-07-24T08:36:34;5.35;;;2.58;;
69485;SDS011;56677;51.710;5.366;2023-07-24T08:39:00;5.28;;;2.70;;
69485;SDS011;56677;51.710;5.366;2023-07-24T08:41:25;4.28;;;2.28;;
69485;SDS011;56677;51.710;5.366;2023-07-24T08:43:50;6.77;;;2.73;;
69485;SDS011;56677;51.710;5.366;2023-07-24T08:46:15;4.60;;;2.70;;
69485;SDS011;56677;51.710;5.366;2023-07-24T08:48:41;4.70;;;2.40;;
69485;SDS011;56677;51.710;5.366;2023-07-24T08:51:08;6.10;;;2.50;;
69485;SDS011;56677;51.710;5.366;2023-07-24T08:53:33;6.18;;;2.90;;
69485;SDS011;56677;51.710;5.366;2023-07-24T08:55:59;5.13;;;2.47;;
69485;SDS011;56677;51.710;5.366;2023-07-24T08:58:24;5.32;;;2.40;;
69485;SDS011;56677;51.710;5.366;2023-07-24T09:00:50;5.13;;;2.72;;
69485;SDS011;56677;51.710;5.366;2023-07-24T09:03:15;4.53;;;2.60;;
69485;SDS011;56677;51.710;5.366;2023-07-24T09:05:40;4.55;;;2.72;;
69485;SDS011;56677;51.710;5.366;2023-07-24T09:08:05;5.30;;;2.70;;
69485;SDS011;56677;51.710;5.366;2023-07-24T09:10:30;4.63;;;2.57;;
69485;SDS011;56677;51.710;5.366;2023-07-24T09:12:55;4.65;;;2.65;;
69485;SDS011;56677;51.710;5.366;2023-07-24T09:15:20;5.60;;;3.00;;
69485;SDS011;56677;51.710;5.366;2023-07-24T09:17:52;4.28;;;2.70;;
69485;SDS011;56677;51.710;5.366;2023-07-24T09:20:18;4.43;;;2.90;;
69485;SDS011;56677;51.710;5.366;2023-07-24T09:22:53;6.03;;;2.83;;
69485;SDS011;56677;51.710;5.366;2023-07-24T09:25:18;4.30;;;2.40;;
69485;SDS011;56677;51.710;5.366;2023-07-24T09:27:44;6.80;;;3.00;;
69485;SDS011;56677;51.710;5.366;2023-07-24T09:30:12;4.60;;;2.70;;
69485;SDS011;56677;51.710;5.366;2023-07-24T09:32:38;4.40;;;2.63;;
69485;SDS011;56677;51.710;5.366;2023-07-24T09:35:03;4.67;;;2.67;;
69485;SDS011;56677;51.710;5.366;2023-07-24T09:37:32;5.50;;;3.10;;
69485;SDS011;56677;51.710;5.366;2023-07-24T09:39:58;5.03;;;3.00;;
69485;SDS011;56677;51.710;5.366;2023-07-24T09:42:33;4.68;;;2.45;;
69485;SDS011;56677;51.710;5.366;2023-07-24T09:44:58;4.78;;;2.30;;
69485;SDS011;56677;51.710;5.366;2023-07-24T09:47:23;5.80;;;2.90;;
69485;SDS011;56677;51.710;5.366;2023-07-24T09:49:48;5.50;;;3.03;;
69485;SDS011;56677;51.710;5.366;2023-07-24T09:52:15;4.85;;;2.80;;
69485;SDS011;56677;51.710;5.366;2023-07-24T09:54:46;4.93;;;2.50;;
69485;SDS011;56677;51.710;5.366;2023-07-24T09:57:13;5.05;;;2.97;;
69485;SDS011;56677;51.710;5.366;2023-07-24T09:59:39;4.67;;;2.80;;
69485;SDS011;56677;51.710;5.366;2023-07-24T10:02:05;4.75;;;2.80;;
69485;SDS011;56677;51.710;5.366;2023-07-24T10:04:31;5.43;;;2.92;;
69485;SDS011;56677;51.710;5.366;2023-07-24T10:06:57;4.63;;;2.72;;
69485;SDS011;56677;51.710;5.366;2023-07-24T10:09:22;5.27;;;2.93;;
69485;SDS011;56677;51.710;5.366;2023-07-24T10:11:48;6.00;;;2.97;;
69485;SDS011;56677;51.710;5.366;2023-07-24T10:14:13;5.17;;;3.00;;
69485;SDS011;56677;51.710;5.366;2023-07-24T10:16:38;4.83;;;3.40;;
69485;SDS011;56677;51.710;5.366;2023-07-24T10:19:12;5.43;;;3.00;;
69485;SDS011;56677;51.710;5.366;2023-07-24T10:21:37;5.03;;;2.88;;
69485;SDS011;56677;51.710;5.366;2023-07-24T10:24:02;4.80;;;2.43;;
69485;SDS011;56677;51.710;5.366;2023-07-24T10:26:27;5.30;;;3.00;;
69485;SDS011;56677;51.710;5.366;2023-07-24T10:28:53;5.77;;;3.03;;
69485;SDS011;56677;51.710;5.366;2023-07-24T10:31:22;4.97;;;3.00;;
69485;SDS011;56677;51.710;5.366;2023-07-24T10:33:48;5.22;;;3.13;;
69485;SDS011;56677;51.710;5.366;2023-07-24T10:36:16;7.07;;;3.13;;
69485;SDS011;56677;51.710;5.366;2023-07-24T10:38:41;5.47;;;2.90;;
69485;SDS011;56677;51.710;5.366;2023-07-24T10:41:07;5.60;;;3.33;;
69485;SDS011;56677;51.710;5.366;2023-07-24T10:43:42;4.57;;;2.90;;
69485;SDS011;56677;51.710;5.366;2023-07-24T10:46:07;5.13;;;3.20;;
69485;SDS011;56677;51.710;5.366;2023-07-24T10:48:33;5.90;;;3.20;;
69485;SDS011;56677;51.710;5.366;2023-07-24T10:50:58;6.00;;;3.67;;
69485;SDS011;56677;51.710;5.366;2023-07-24T10:53:23;5.63;;;2.90;;
69485;SDS011;56677;51.710;5.366;2023-07-24T10:55:49;5.20;;;2.97;;
69485;SDS011;56677;51.710;5.366;2023-07-24T10:58:15;5.68;;;3.03;;
69485;SDS011;56677;51.710;5.366;2023-07-24T11:00:40;5.50;;;3.00;;
69485;SDS011;56677;51.710;5.366;2023-07-24T11:03:12;5.53;;;3.13;;
69485;SDS011;56677;51.710;5.366;2023-07-24T11:05:44;6.13;;;2.80;;
69485;SDS011;56677;51.710;5.366;2023-07-24T11:08:13;5.45;;;3.28;;
69485;SDS011;56677;51.710;5.366;2023-07-24T11:10:38;4.80;;;2.53;;
69485;SDS011;56677;51.710;5.366;2023-07-24T11:13:09;5.47;;;3.03;;
69485;SDS011;56677;51.710;5.366;2023-07-24T11:15:35;5.00;;;2.67;;
69485;SDS011;56677;51.710;5.366;2023-07-24T11:18:00;4.88;;;2.50;;
69485;SDS011;56677;51.710;5.366;2023-07-24T11:20:25;4.57;;;2.95;;
69485;SDS011;56677;51.710;5.366;2023-07-24T11:22:50;5.13;;;3.00;;
69485;SDS011;56677;51.710;5.366;2023-07-24T11:25:15;4.88;;;3.13;;
69485;SDS011;56677;51.710;5.366;2023-07-24T11:27:41;4.60;;;3.08;;
69485;SDS011;56677;51.710;5.366;2023-07-24T11:30:07;4.60;;;2.63;;
69485;SDS011;56677;51.710;5.366;2023-07-24T11:32:33;6.53;;;2.95;;
69485;SDS011;56677;51.710;5.366;2023-07-24T11:34:58;4.82;;;2.80;;
69485;SDS011;56677;51.710;5.366;2023-07-24T11:37:24;4.95;;;2.75;;
69485;SDS011;56677;51.710;5.366;2023-07-24T11:39:59;3.92;;;2.50;;
69485;SDS011;56677;51.710;5.366;2023-07-24T11:42:27;5.32;;;3.05;;
69485;SDS011;56677;51.710;5.366;2023-07-24T11:44:53;5.40;;;2.93;;
69485;SDS011;56677;51.710;5.366;2023-07-24T11:47:18;5.50;;;3.40;;
69485;SDS011;56677;51.710;5.366;2023-07-24T11:49:43;4.10;;;2.70;;
69485;SDS011;56677;51.710;5.366;2023-07-24T11:52:08;5.07;;;2.90;;
69485;SDS011;56677;51.710;5.366;2023-07-24T11:54:34;6.18;;;3.30;;
69485;SDS011;56677;51.710;5.366;2023-07-24T11:56:59;5.53;;;2.90;;
69485;SDS011;56677;51.710;5.366;2023-07-24T11:59:24;5.33;;;3.27;;
69485;SDS011;56677;51.710;5.366;2023-07-24T12:01:50;4.27;;;3.17;;
69485;SDS011;56677;51.710;5.366;2023-07-24T12:04:15;5.50;;;3.33;;
69485;SDS011;56677;51.710;5.366;2023-07-24T12:06:40;5.38;;;3.20;;
69485;SDS011;56677;51.710;5.366;2023-07-24T12:09:06;5.30;;;2.80;;
69485;SDS011;56677;51.710;5.366;2023-07-24T12:11:31;4.10;;;2.60;;
69485;SDS011;56677;51.710;5.366;2023-07-24T12:13:56;5.37;;;3.00;;
69485;SDS011;56677;51.710;5.366;2023-07-24T12:16:22;5.77;;;3.20;;
69485;SDS011;56677;51.710;5.366;2023-07-24T12:18:47;4.65;;;2.85;;
69485;SDS011;56677;51.710;5.366;2023-07-24T12:21:12;5.40;;;2.63;;
69485;SDS011;56677;51.710;5.366;2023-07-24T12:23:37;4.25;;;2.67;;
69485;SDS011;56677;51.710;5.366;2023-07-24T12:26:02;6.00;;;2.88;;
69485;SDS011;56677;51.710;5.366;2023-07-24T12:28:27;4.80;;;2.53;;
69485;SDS011;56677;51.710;5.366;2023-07-24T12:30:52;4.47;;;2.53;;
69485;SDS011;56677;51.710;5.366;2023-07-24T12:33:17;4.18;;;2.60;;
69485;SDS011;56677;51.710;5.366;2023-07-24T12:35:43;4.90;;;2.90;;
69485;SDS011;56677;51.710;5.366;2023-07-24T12:38:08;5.82;;;2.83;;
69485;SDS011;56677;51.710;5.366;2023-07-24T12:40:33;5.53;;;2.65;;
69485;SDS011;56677;51.710;5.366;2023-07-24T12:42:58;5.57;;;3.10;;
69485;SDS011;56677;51.710;5.366;2023-07-24T12:45:23;4.43;;;2.72;;
69485;SDS011;56677;51.710;5.366;2023-07-24T12:47:48;4.78;;;3.15;;
69485;SDS011;56677;51.710;5.366;2023-07-24T12:50:13;4.95;;;2.90;;
69485;SDS011;56677;51.710;5.366;2023-07-24T12:52:38;4.93;;;3.03;;
69485;SDS011;56677;51.710;5.366;2023-07-24T12:55:04;5.75;;;3.40;;
69485;SDS011;56677;51.710;5.366;2023-07-24T12:57:29;5.70;;;3.13;;
69485;SDS011;56677;51.710;5.366;2023-07-24T12:59:54;4.78;;;2.67;;
69485;SDS011;56677;51.710;5.366;2023-07-24T13:02:19;4.75;;;2.65;;
69485;SDS011;56677;51.710;5.366;2023-07-24T13:04:44;4.37;;;2.53;;
69485;SDS011;56677;51.710;5.366;2023-07-24T13:07:09;4.82;;;3.03;;
69485;SDS011;56677;51.710;5.366;2023-07-24T13:09:35;4.90;;;3.05;;
69485;SDS011;56677;51.710;5.366;2023-07-24T13:12:00;5.67;;;3.20;;
69485;SDS011;56677;51.710;5.366;2023-07-24T13:14:25;4.83;;;3.10;;
69485;SDS011;56677;51.710;5.366;2023-07-24T13:16:50;5.55;;;3.00;;
69485;SDS011;56677;51.710;5.366;2023-07-24T13:19:15;4.80;;;3.20;;
69485;SDS011;56677;51.710;5.366;2023-07-24T13:21:40;4.43;;;2.77;;
69485;SDS011;56677;51.710;5.366;2023-07-24T13:24:06;6.68;;;3.13;;
69485;SDS011;56677;51.710;5.366;2023-07-24T13:26:31;4.97;;;2.83;;
69485;SDS011;56677;51.710;5.366;2023-07-24T13:28:56;5.00;;;3.00;;
69485;SDS011;56677;51.710;5.366;2023-07-24T13:31:21;4.75;;;2.80;;
69485;SDS011;56677;51.710;5.366;2023-07-24T13:33:46;4.83;;;3.17;;
69485;SDS011;56677;51.710;5.366;2023-07-24T13:36:12;5.32;;;3.10;;
69485;SDS011;56677;51.710;5.366;2023-07-24T13:38:37;5.00;;;3.13;;
69485;SDS011;56677;51.710;5.366;2023-07-24T13:41:02;4.38;;;3.03;;
69485;SDS011;56677;51.710;5.366;2023-07-24T13:43:31;5.37;;;2.83;;
69485;SDS011;56677;51.710;5.366;2023-07-24T13:45:56;5.00;;;3.05;;
69485;SDS011;56677;51.710;5.366;2023-07-24T13:48:22;5.43;;;3.10;;
69485;SDS011;56677;51.710;5.366;2023-07-24T13:50:47;5.47;;;3.20;;
69485;SDS011;56677;51.710;5.366;2023-07-24T13:53:12;4.80;;;2.55;;
69485;SDS011;56677;51.710;5.366;2023-07-24T13:55:37;6.30;;;2.80;;
69485;SDS011;56677;51.710;5.366;2023-07-24T13:58:02;5.23;;;3.20;;
69485;SDS011;56677;51.710;5.366;2023-07-24T14:00:28;4.45;;;3.05;;
69485;SDS011;56677;51.710;5.366;2023-07-24T14:02:53;4.33;;;2.70;;
69485;SDS011;56677;51.710;5.366;2023-07-24T14:05:18;5.60;;;3.03;;
69485;SDS011;56677;51.710;5.366;2023-07-24T14:07:43;4.72;;;3.00;;
69485;SDS011;56677;51.710;5.366;2023-07-24T14:10:08;5.95;;;3.30;;
69485;SDS011;56677;51.710;5.366;2023-07-24T14:12:33;5.03;;;2.90;;
69485;SDS011;56677;51.710;5.366;2023-07-24T14:14:58;5.30;;;2.83;;
69485;SDS011;56677;51.710;5.366;2023-07-24T14:17:24;5.00;;;3.20;;
69485;SDS011;56677;51.710;5.366;2023-07-24T14:19:49;4.32;;;3.00;;
69485;SDS011;56677;51.710;5.366;2023-07-24T14:22:14;5.18;;;2.80;;
69485;SDS011;56677;51.710;5.366;2023-07-24T14:24:39;6.10;;;3.30;;
69485;SDS011;56677;51.710;5.366;2023-07-24T14:27:04;5.47;;;3.17;;
69485;SDS011;56677;51.710;5.366;2023-07-24T14:29:29;4.63;;;3.20;;
69485;SDS011;56677;51.710;5.366;2023-07-24T14:31:54;4.60;;;3.15;;
69485;SDS011;56677;51.710;5.366;2023-07-24T14:34:19;5.30;;;3.03;;
69485;SDS011;56677;51.710;5.366;2023-07-24T14:36:45;5.35;;;2.72;;
69485;SDS011;56677;51.710;5.366;2023-07-24T14:39:10;4.72;;;3.30;;
69485;SDS011;56677;51.710;5.366;2023-07-24T14:41:35;5.82;;;3.25;;
69485;SDS011;56677;51.710;5.366;2023-07-24T14:44:00;4.63;;;2.50;;
69485;SDS011;56677;51.710;5.366;2023-07-24T14:46:25;4.18;;;2.65;;
69485;SDS011;56677;51.710;5.366;2023-07-24T14:48:50;5.03;;;2.80;;
69485;SDS011;56677;51.710;5.366;2023-07-24T14:51:15;4.65;;;2.58;;
69485;SDS011;56677;51.710;5.366;2023-07-24T14:53:40;5.68;;;3.00;;
69485;SDS011;56677;51.710;5.366;2023-07-24T14:56:06;5.95;;;2.85;;
69485;SDS011;56677;51.710;5.366;2023-07-24T14:58:31;5.03;;;2.80;;
69485;SDS011;56677;51.710;5.366;2023-07-24T15:00:56;5.95;;;3.10;;
69485;SDS011;56677;51.710;5.366;2023-07-24T15:03:21;4.40;;;2.50;;
69485;SDS011;56677;51.710;5.366;2023-07-24T15:05:47;4.70;;;2.70;;
69485;SDS011;56677;51.710;5.366;2023-07-24T15:08:12;4.20;;;2.93;;
69485;SDS011;56677;51.710;5.366;2023-07-24T15:10:37;4.57;;;2.40;;
69485;SDS011;56677;51.710;5.366;2023-07-24T15:13:02;4.88;;;2.65;;
69485;SDS011;56677;51.710;5.366;2023-07-24T15:15:28;5.27;;;2.70;;
69485;SDS011;56677;51.710;5.366;2023-07-24T15:17:53;4.25;;;2.63;;
69485;SDS011;56677;51.710;5.366;2023-07-24T15:20:18;4.60;;;2.42;;
69485;SDS011;56677;51.710;5.366;2023-07-24T15:22:43;3.90;;;2.50;;
69485;SDS011;56677;51.710;5.366;2023-07-24T15:25:08;4.72;;;2.58;;
69485;SDS011;56677;51.710;5.366;2023-07-24T15:27:33;3.85;;;2.42;;
69485;SDS011;56677;51.710;5.366;2023-07-24T15:29:58;4.43;;;2.70;;
69485;SDS011;56677;51.710;5.366;2023-07-24T15:32:23;4.63;;;2.70;;
69485;SDS011;56677;51.710;5.366;2023-07-24T15:34:49;4.43;;;2.70;;
69485;SDS011;56677;51.710;5.366;2023-07-24T15:37:14;5.15;;;2.80;;
69485;SDS011;56677;51.710;5.366;2023-07-24T15:39:39;7.33;;;3.00;;
69485;SDS011;56677;51.710;5.366;2023-07-24T15:42:04;5.38;;;3.00;;
69485;SDS011;56677;51.710;5.366;2023-07-24T15:44:29;7.22;;;3.33;;
69485;SDS011;56677;51.710;5.366;2023-07-24T15:46:55;11.43;;;3.40;;
69485;SDS011;56677;51.710;5.366;2023-07-24T15:49:20;7.47;;;3.00;;
69485;SDS011;56677;51.710;5.366;2023-07-24T15:51:45;10.98;;;3.33;;
69485;SDS011;56677;51.710;5.366;2023-07-24T15:54:10;7.55;;;3.47;;
69485;SDS011;56677;51.710;5.366;2023-07-24T15:56:36;7.53;;;3.30;;
69485;SDS011;56677;51.710;5.366;2023-07-24T15:59:01;7.80;;;3.13;;
69485;SDS011;56677;51.710;5.366;2023-07-24T16:01:26;7.45;;;2.83;;
69485;SDS011;56677;51.710;5.366;2023-07-24T16:03:51;8.50;;;3.22;;
69485;SDS011;56677;51.710;5.366;2023-07-24T16:06:16;8.70;;;3.13;;
69485;SDS011;56677;51.710;5.366;2023-07-24T16:08:42;7.20;;;2.72;;
69485;SDS011;56677;51.710;5.366;2023-07-24T16:11:07;8.73;;;3.10;;
69485;SDS011;56677;51.710;5.366;2023-07-24T16:13:32;7.97;;;2.83;;
69485;SDS011;56677;51.710;5.366;2023-07-24T16:15:57;7.63;;;3.00;;
69485;SDS011;56677;51.710;5.366;2023-07-24T16:18:22;8.70;;;3.15;;
69485;SDS011;56677;51.710;5.366;2023-07-24T16:20:47;7.90;;;3.20;;
69485;SDS011;56677;51.710;5.366;2023-07-24T16:23:12;8.93;;;3.20;;
69485;SDS011;56677;51.710;5.366;2023-07-24T16:25:37;7.88;;;3.30;;
69485;SDS011;56677;51.710;5.366;2023-07-24T16:28:03;7.78;;;3.17;;
69485;SDS011;56677;51.710;5.366;2023-07-24T16:30:28;8.20;;;2.67;;
69485;SDS011;56677;51.710;5.366;2023-07-24T16:32:53;6.95;;;2.58;;
69485;SDS011;56677;51.710;5.366;2023-07-24T16:35:18;10.00;;;2.90;;
69485;SDS011;56677;51.710;5.366;2023-07-24T16:37:43;5.25;;;2.17;;
69485;SDS011;56677;51.710;5.366;2023-07-24T16:40:08;8.40;;;2.10;;
69485;SDS011;56677;51.710;5.366;2023-07-24T16:42:34;5.82;;;1.90;;
69485;SDS011;56677;51.710;5.366;2023-07-24T16:44:59;4.65;;;1.83;;
69485;SDS011;56677;51.710;5.366;2023-07-24T16:47:24;4.88;;;1.67;;
69485;SDS011;56677;51.710;5.366;2023-07-24T16:49:49;5.03;;;2.00;;
69485;SDS011;56677;51.710;5.366;2023-07-24T16:52:14;6.63;;;2.00;;
69485;SDS011;56677;51.710;5.366;2023-07-24T16:54:39;5.32;;;2.15;;
69485;SDS011;56677;51.710;5.366;2023-07-24T16:57:05;5.03;;;1.70;;
69485;SDS011;56677;51.710;5.366;2023-07-24T16:59:30;6.00;;;2.07;;
69485;SDS011;56677;51.710;5.366;2023-07-24T17:01:55;3.90;;;1.60;;
69485;SDS011;56677;51.710;5.366;2023-07-24T17:04:20;7.70;;;2.30;;
69485;SDS011;56677;51.710;5.366;2023-07-24T17:06:45;6.28;;;2.00;;
69485;SDS011;56677;51.710;5.366;2023-07-24T17:09:10;4.13;;;2.20;;
69485;SDS011;56677;51.710;5.366;2023-07-24T17:11:35;3.20;;;1.70;;
69485;SDS011;56677;51.710;5.366;2023-07-24T17:14:01;8.38;;;2.10;;
69485;SDS011;56677;51.710;5.366;2023-07-24T17:16:26;3.57;;;1.77;;
69485;SDS011;56677;51.710;5.366;2023-07-24T17:18:51;6.53;;;2.10;;
69485;SDS011;56677;51.710;5.366;2023-07-24T17:21:16;5.72;;;2.33;;
69485;SDS011;56677;51.710;5.366;2023-07-24T17:23:41;5.70;;;1.90;;
69485;SDS011;56677;51.710;5.366;2023-07-24T17:26:06;5.68;;;1.77;;
69485;SDS011;56677;51.710;5.366;2023-07-24T17:28:31;4.00;;;1.75;;
69485;SDS011;56677;51.710;5.366;2023-07-24T17:30:57;5.73;;;2.20;;
69485;SDS011;56677;51.710;5.366;2023-07-24T17:33:22;4.78;;;1.90;;
69485;SDS011;56677;51.710;5.366;2023-07-24T17:35:47;5.28;;;1.63;;
69485;SDS011;56677;51.710;5.366;2023-07-24T17:38:12;4.15;;;1.85;;
69485;SDS011;56677;51.710;5.366;2023-07-24T17:40:37;4.15;;;1.90;;
69485;SDS011;56677;51.710;5.366;2023-07-24T17:43:02;5.33;;;1.70;;
69485;SDS011;56677;51.710;5.366;2023-07-24T17:45:28;5.03;;;1.80;;
69485;SDS011;56677;51.710;5.366;2023-07-24T17:47:53;6.90;;;1.97;;
69485;SDS011;56677;51.710;5.366;2023-07-24T17:50:18;5.10;;;1.90;;
69485;SDS011;56677;51.710;5.366;2023-07-24T17:52:43;5.35;;;1.60;;
69485;SDS011;56677;51.710;5.366;2023-07-24T17:55:08;3.45;;;1.42;;
69485;SDS011;56677;51.710;5.366;2023-07-24T17:57:33;3.20;;;1.60;;
69485;SDS011;56677;51.710;5.366;2023-07-24T17:59:58;6.53;;;1.73;;
69485;SDS011;56677;51.710;5.366;2023-07-24T18:02:24;4.75;;;1.70;;
69485;SDS011;56677;51.710;5.366;2023-07-24T18:04:49;3.55;;;1.50;;
69485;SDS011;56677;51.710;5.366;2023-07-24T18:07:14;5.25;;;1.50;;
69485;SDS011;56677;51.710;5.366;2023-07-24T18:09:39;3.15;;;1.50;;
69485;SDS011;56677;51.710;5.366;2023-07-24T18:12:04;4.82;;;1.60;;
69485;SDS011;56677;51.710;5.366;2023-07-24T18:14:29;3.90;;;1.70;;
69485;SDS011;56677;51.710;5.366;2023-07-24T18:16:55;4.67;;;1.80;;
69485;SDS011;56677;51.710;5.366;2023-07-24T18:19:20;3.30;;;1.48;;
69485;SDS011;56677;51.710;5.366;2023-07-24T18:21:45;4.47;;;1.67;;